Terminal Aerodrome Forecast
Issued by NWS St Louis, MO

Home | Current Version | Previous Version | Text Only | Print | Product List | Glossary On
Versions: 1 2 3 4 5 6 7 8 9 10 11 12 13 14 15 16 17 18 19 20 21
000
FTUS43 KLSX 271738
TAFCOU
TAF
KCOU 271738Z 2718/2818 27009KT P6SM OVC035
     FM272000 24008KT P6SM SCT150
     FM280200 VRB03KT P6SM VCSH BKN090
     FM280400 08006KT P6SM OVC070
     FM280700 10006KT P6SM VCSH OVC080
     FM281400 14008KT P6SM OVC015=

USA.gov is the U.S. government's official web portal to all federal, state and local government web resources and services.